Time;durP1;ratioP1;P1;durP2;ratioP2;P2;SDS_P1;SDS_P2;PMS_P1;PMS_P2;Temp;Humidity;BMP_temperature;BMP_pressure;BME280_temperature;BME280_humidity;BME280_pressure;Samples;Min_cycle;Max_cycle;Signal;HPM_P1;HPM_P2
2023/07/31 00:01:43;;;;;;;20.08;8.00;;;;;;;16.53;100.00;100923.16;5057039;28;20047;-89
2023/07/31 00:04:32;;;;;;;20.00;7.68;;;;;;;16.65;100.00;100948.78;5038560;28;20036;-86
2023/07/31 00:07:09;;;;;;;;;;;;;;;;;;;;;
2023/07/31 00:09:47;;;;;;;21.15;7.63;;;;;;;16.60;100.00;100946.19;5040243;28;20384;-86
2023/07/31 00:12:15;;;;;;;22.65;7.20;;;;;;;16.43;100.00;100917.03;5039814;28;20029;-87
2023/07/31 00:14:45;;;;;;;22.77;7.70;;;;;;;16.34;100.00;100902.94;5056455;28;20024;-86
2023/07/31 00:17:21;;;;;;;;;;;;;;;;;;;;;
2023/07/31 00:19:49;;;;;;;20.10;7.05;;;;;;;16.41;100.00;100921.53;5056682;28;20037;-86
2023/07/31 00:22:27;;;;;;;23.63;7.13;;;;;;;16.54;100.00;100943.59;5039093;28;20037;-87
2023/07/31 00:25:06;;;;;;;18.88;6.85;;;;;;;16.35;100.00;100899.38;5056294;28;20024;-86
2023/07/31 00:27:46;;;;;;;;;;;;;;;;;;;;;
2023/07/31 00:33:36;;;;;;;21.48;6.22;;;;;;;16.67;100.00;100960.34;5046266;28;20029;-86
2023/07/31 00:36:14;;;;;;;;;;;;;;;;;;;;;
2023/07/31 00:38:58;;;;;;;19.08;6.20;;;;;;;16.44;100.00;100921.47;5040575;28;20025;-86
2023/07/31 00:41:54;;;;;;;;;;;;;;;;;;;;;
2023/07/31 00:44:45;;;;;;;15.35;5.93;;;;;;;16.42;100.00;100907.28;5057082;28;20036;-87
2023/07/31 00:47:23;;;;;;;18.45;5.88;;;;;;;16.34;100.00;100898.47;5048796;28;20043;-86
2023/07/31 00:49:49;;;;;;;17.90;6.10;;;;;;;16.51;100.00;100928.50;5056747;28;20528;-86
2023/07/31 00:52:44;;;;;;;20.25;6.70;;;;;;;16.67;100.00;100950.53;5055671;28;20063;-87
2023/07/31 00:55:23;;;;;;;;;;;;;;;;;;;;;
2023/07/31 00:58:12;;;;;;;17.80;5.80;;;;;;;16.56;100.00;100932.91;5055530;28;20037;-87
2023/07/31 01:01:00;;;;;;;18.95;6.03;;;;;;;16.36;100.00;100903.78;5054910;28;20086;-87
2023/07/31 01:03:44;;;;;;;15.77;6.00;;;;;;;16.50;100.00;100920.53;5037044;28;20039;-86
2023/07/31 01:06:33;;;;;;;16.35;5.93;;;;;;;16.61;100.00;100942.59;5037217;28;20039;-87
2023/07/31 01:09:56;;;;;;;;;;;;;;;;;;;;;
2023/07/31 01:12:49;;;;;;;20.13;6.03;;;;;;;16.48;100.00;100917.84;5054877;28;20040;-87
2023/07/31 01:15:27;;;;;;;20.50;5.97;;;;;;;16.38;100.00;100904.66;5036382;28;20028;-87
2023/07/31 01:18:03;;;;;;;15.27;5.15;;;;;;;16.22;100.00;100875.50;5037962;28;20051;-87
2023/07/31 01:21:06;;;;;;;16.08;5.03;;;;;;;16.60;100.00;100934.63;5037270;28;20031;-87
2023/07/31 01:24:14;;;;;;;20.17;5.63;;;;;;;16.21;100.00;100870.22;5053301;28;20458;-87
2023/07/31 01:27:06;;;;;;;17.65;6.00;;;;;;;16.23;100.00;100881.72;5054368;28;20032;-87
2023/07/31 01:29:51;;;;;;;20.77;5.85;;;;;;;16.29;100.00;100892.34;5036621;28;20032;-87
2023/07/31 01:35:19;;;;;;;15.43;5.47;;;;;;;16.19;100.00;100880.03;5036393;28;20037;-86
2023/07/31 01:37:55;;;;;;;17.27;5.97;;;;;;;16.17;100.00;100874.69;5054454;28;20037;-87
2023/07/31 01:43:59;;;;;;;;;;;;;;;;;;;;;
2023/07/31 01:46:43;;;;;;;;;;;;;;;;;;;;;
2023/07/31 01:49:21;;;;;;;16.63;5.60;;;;;;;16.20;100.00;100871.13;5053156;28;20029;-86
2023/07/31 01:51:52;;;;;;;17.92;6.07;;;;;;;16.18;100.00;100870.22;5054104;28;20045;-86
2023/07/31 01:54:33;;;;;;;;;;;;;;;;;;;;;
2023/07/31 01:57:38;;;;;;;19.20;5.47;;;;;;;16.38;100.00;100908.22;5052646;28;20048;-87
2023/07/31 02:00:07;;;;;;;15.35;5.75;;;;;;;16.15;100.00;100864.97;5052068;28;20099;-86
2023/07/31 02:02:36;;;;;;;15.60;5.53;;;;;;;16.45;100.00;100911.72;5036194;28;20124;-86
2023/07/31 02:08:22;;;;;;;17.33;5.72;;;;;;;16.28;100.00;100888.78;5042764;28;20373;-87
2023/07/31 02:11:21;;;;;;;;;;;;;;;;;;;;;
2023/07/31 02:14:14;;;;;;;14.88;5.68;;;;;;;16.07;100.00;100853.50;5037838;28;20380;-87
2023/07/31 02:17:08;;;;;;;;;;;;;;;16.41;100.00;100900.19;5037077;28;20033;-87
2023/07/31 02:19:52;;;;;;;;;;;;;;;16.41;100.00;100897.53;5039116;28;19956;-87
2023/07/31 02:22:28;;;;;;;12.93;5.38;;;;;;;16.37;100.00;100897.56;5037172;28;20007;-87
2023/07/31 02:24:58;;;;;;;20.17;5.75;;;;;;;16.20;100.00;100868.44;5056136;28;20032;-87
2023/07/31 02:27:48;;;;;;;15.98;5.72;;;;;;;16.26;100.00;100881.69;5039591;28;20087;-87
2023/07/31 02:30:16;;;;;;;16.55;5.72;;;;;;;16.16;100.00;100870.25;5059633;28;20029;-87
2023/07/31 02:32:46;;;;;;;16.15;5.65;;;;;;;16.20;100.00;100869.31;5064233;28;20468;-87
2023/07/31 02:35:19;;;;;;;17.58;5.70;;;;;;;16.09;100.00;100849.03;5066795;28;20035;-87
2023/07/31 02:37:57;;;;;;;21.90;5.70;;;;;;;16.19;100.00;100862.25;5069765;28;20071;-86
2023/07/31 02:40:30;;;;;;;14.98;5.47;;;;;;;16.21;100.00;100870.22;5046817;28;20479;-87
2023/07/31 02:46:00;;;;;;;17.88;5.78;;;;;;;16.30;100.00;100882.53;5058375;28;20033;-88
2023/07/31 02:48:42;;;;;;;16.60;6.13;;;;;;;16.17;100.00;100855.16;5040067;28;20040;-86
2023/07/31 02:51:33;;;;;;;15.85;5.57;;;;;;;16.21;100.00;100860.41;5035459;28;20040;-87
2023/07/31 02:54:45;;;;;;;;;;;;;;;;;;;;;
2023/07/31 02:57:33;;;;;;;;;;;;;;;;;;;;;
2023/07/31 03:00:06;;;;;;;16.90;5.97;;;;;;;15.95;100.00;100825.19;5040932;28;20384;-86
2023/07/31 03:02:32;;;;;;;;;;;;;;;16.30;100.00;100878.09;5040133;28;20373;-86
2023/07/31 03:04:59;;;;;;;15.50;5.85;;;;;;;15.97;100.00;100831.38;5039552;28;19909;-86
2023/07/31 03:07:36;;;;;;;15.27;6.30;;;;;;;16.03;100.00;100842.00;5022620;28;20041;-86
2023/07/31 03:10:09;;;;;;;20.60;6.00;;;;;;;16.06;100.00;100839.28;5056781;28;20452;-86
2023/07/31 03:12:37;;;;;;;16.08;6.10;;;;;;;16.15;100.00;100863.19;5056884;28;20053;-86
2023/07/31 03:15:19;;;;;;;17.60;5.90;;;;;;;15.87;100.00;100816.41;5056819;28;20361;-86
2023/07/31 03:18:07;;;;;;;18.75;6.35;;;;;;;15.93;100.00;100817.25;5038781;28;20045;-86
2023/07/31 03:20:43;;;;;;;17.23;6.03;;;;;;;16.09;100.00;100852.56;5039474;28;20464;-86
2023/07/31 03:23:24;;;;;;;;;;;;;;;;;;;;;
2023/07/31 03:26:22;;;;;;;20.45;6.20;;;;;;;16.23;100.00;100868.38;5055730;28;20033;-86
2023/07/31 03:28:59;;;;;;;25.58;5.95;;;;;;;16.21;100.00;100864.88;5038459;28;20033;-86
2023/07/31 03:31:34;;;;;;;14.90;5.78;;;;;;;16.09;100.00;100841.91;5022503;28;20037;-86
2023/07/31 03:34:25;;;;;;;;;;;;;;;;;;;;;
2023/07/31 03:37:09;;;;;;;15.45;5.97;;;;;;;15.95;100.00;100802.09;5056734;28;20059;-87
2023/07/31 03:39:50;;;;;;;;;;;;;;;;;;;;;
2023/07/31 03:42:21;;;;;;;15.60;5.95;;;;;;;15.93;100.00;100787.91;5056419;28;20029;-87
2023/07/31 03:45:02;;;;;;;14.68;5.80;;;;;;;15.93;100.00;100795.00;5056289;28;20021;-87
2023/07/31 03:47:50;;;;;;;17.10;5.57;;;;;;;16.03;100.00;100813.53;5040538;28;20405;-87
2023/07/31 03:50:41;;;;;;;15.65;5.90;;;;;;;16.01;100.00;100799.34;5024460;28;20029;-86
2023/07/31 03:53:12;;;;;;;19.30;6.07;;;;;;;15.95;100.00;100780.78;5038203;28;20468;-87
2023/07/31 03:55:42;;;;;;;14.82;5.68;;;;;;;15.94;100.00;100780.81;5055986;28;20703;-87
2023/07/31 03:58:40;;;;;;;;;;;;;;;;;;;;;
2023/07/31 04:01:14;;;;;;;17.63;5.68;;;;;;;16.23;100.00;100813.31;5051240;28;20043;-87
2023/07/31 04:04:09;;;;;;;;;;;;;;;;;;;;;
2023/07/31 04:06:37;;;;;;;17.50;5.80;;;;;;;16.21;100.00;100801.75;5055108;28;20043;-87
2023/07/31 04:09:08;;;;;;;18.08;5.55;;;;;;;16.14;100.00;100776.06;5056113;28;20453;-87
2023/07/31 04:11:39;;;;;;;17.67;5.93;;;;;;;16.16;100.00;100789.41;5054988;28;20075;-86
2023/07/31 04:14:10;;;;;;;16.35;5.28;;;;;;;16.07;100.00;100762.88;5055738;28;20029;-86
2023/07/31 04:16:40;;;;;;;17.42;5.60;;;;;;;16.19;100.00;100768.03;5055361;28;20108;-88
2023/07/31 04:19:18;;;;;;;;;;;;;;;;;;;;;
2023/07/31 04:21:54;;;;;;;21.55;5.22;;;;;;;16.40;100.00;100806.84;5055678;28;20371;-87
2023/07/31 04:24:32;;;;;;;14.43;5.25;;;;;;;16.29;100.00;100780.34;5021026;28;20025;-88
2023/07/31 04:27:05;;;;;;;13.15;5.20;;;;;;;16.12;100.00;100737.91;5055571;28;20119;-88
2023/07/31 04:29:57;;;;;;;17.92;5.75;;;;;;;16.21;100.00;100747.56;5055112;28;20131;-87
2023/07/31 04:32:35;;;;;;;17.08;5.30;;;;;;;16.20;100.00;100754.69;5037501;28;20049;-87
2023/07/31 04:35:14;;;;;;;;;;;;;;;;;;;;;
2023/07/31 04:37:59;;;;;;;15.07;5.20;;;;;;;16.23;100.00;100743.97;5054691;28;20033;-87
2023/07/31 04:40:45;;;;;;;20.75;6.10;;;;;;;16.23;100.00;100737.75;5037244;28;20441;-87
2023/07/31 04:43:32;;;;;;;20.00;5.20;;;;;;;16.55;100.00;100795.09;5037468;28;20369;-87
2023/07/31 04:49:02;;;;;;;13.98;5.03;;;;;;;16.55;100.00;100776.41;5047349;28;20092;-87
2023/07/31 04:51:48;;;;;;;13.10;5.10;;;;;;;16.43;100.00;100741.00;5037435;28;20032;-87
2023/07/31 04:57:53;;;;;;;13.30;5.22;;;;;;;16.35;100.00;100726.91;5043490;28;20523;-87
2023/07/31 05:00:29;;;;;;;14.77;5.32;;;;;;;16.43;100.00;100741.00;5054810;28;20021;-91
2023/07/31 05:02:57;;;;;;;16.20;5.47;;;;;;;16.48;100.00;100736.47;5054680;28;20079;-87
2023/07/31 05:05:57;;;;;;;14.77;5.53;;;;;;;16.39;100.00;100715.28;5056137;28;20025;-87
2023/07/31 05:08:36;;;;;;;;;;;;;;;;;;;;;
2023/07/31 05:11:06;;;;;;;18.73;5.53;;;;;;;16.51;100.00;100732.91;5055487;28;20304;-87
2023/07/31 05:13:44;;;;;;;16.65;5.95;;;;;;;16.64;100.00;100755.81;5037475;28;20036;-87
2023/07/31 05:16:34;;;;;;;12.30;5.85;;;;;;;16.39;100.00;100706.41;5053484;28;20389;-87
2023/07/31 05:19:25;;;;;;;18.80;5.60;;;;;;;16.44;100.00;100713.44;5054590;28;20028;-87
2023/07/31 05:22:13;;;;;;;11.30;5.22;;;;;;;16.60;100.00;100734.53;5054540;28;20112;-88
2023/07/31 05:24:54;;;;;;;14.05;5.38;;;;;;;16.60;100.00;100735.41;5035909;28;20029;-87
2023/07/31 05:27:46;;;;;;;14.45;5.63;;;;;;;16.40;100.00;100706.41;5036446;28;20498;-87
2023/07/31 05:30:24;;;;;;;14.68;5.53;;;;;;;16.49;100.00;100735.59;5035659;28;20036;-87
2023/07/31 05:33:15;;;;;;;14.27;5.50;;;;;;;16.51;100.00;100733.78;5035973;28;20039;-88
2023/07/31 05:35:59;;;;;;;12.00;5.20;;;;;;;16.30;100.00;100702.09;5035947;28;20120;-87
2023/07/31 05:38:27;;;;;;;14.32;5.70;;;;;;;16.40;100.00;100711.75;5036005;28;20035;-88
2023/07/31 05:41:18;;;;;;;13.88;5.32;;;;;;;16.28;100.00;100694.13;5036136;28;20090;-88
2023/07/31 05:44:19;;;;;;;10.80;4.85;;;;;;;16.28;100.00;100699.47;5051868;28;20063;-90
2023/07/31 05:46:54;;;;;;;13.63;4.65;;;;;;;16.17;100.00;100698.72;5022311;28;20052;-89
2023/07/31 05:49:43;;;;;;;11.23;4.63;;;;;;;16.42;100.00;100733.03;5052875;28;20116;-88
2023/07/31 05:52:34;;;;;;;10.27;4.50;;;;;;;16.14;100.00;100684.56;5035609;28;20041;-88
2023/07/31 05:58:20;;;;;;;8.68;4.18;;;;;;;16.12;100.00;100678.38;5053367;28;20091;-87
2023/07/31 06:04:06;;;;;;;10.32;3.92;;;;;;;16.20;100.00;100704.03;5038540;28;20041;-88
2023/07/31 06:07:07;;;;;;;9.65;4.00;;;;;;;16.17;100.00;100695.19;5052475;28;20472;-87
2023/07/31 06:09:43;;;;;;;;;;;;;;;;;;;;;
2023/07/31 06:12:18;;;;;;;7.47;3.97;;;;;;;16.15;100.00;100699.69;5053825;28;20040;-89
2023/07/31 06:15:04;;;;;;;;;;;;;;;;;;;;;
2023/07/31 06:18:04;;;;;;;6.18;3.63;;;;;;;16.22;100.00;100677.34;5048314;28;20047;-88
2023/07/31 06:20:40;;;;;;;8.55;3.45;;;;;;;16.09;100.00;100649.09;5035587;28;20056;-89
2023/07/31 06:23:36;;;;;;;;;;;;;;;;;;;;;
2023/07/31 06:26:22;;;;;;;7.10;3.70;;;;;;;16.40;100.00;100701.06;5044728;28;20037;-88
2023/07/31 06:29:07;;;;;;;;;;;;;;;;;;;;;
2023/07/31 06:31:40;;;;;;;6.30;3.88;;;;;;;16.10;100.00;100657.09;5052482;28;20039;-88
2023/07/31 06:34:33;;;;;;;6.40;3.95;;;;;;;16.18;100.00;100670.28;5034768;28;20052;-87
2023/07/31 06:37:12;;;;;;;7.55;4.25;;;;;;;16.46;100.00;100713.41;5045519;28;20044;-88
2023/07/31 06:39:42;;;;;;;7.28;3.80;;;;;;;16.14;100.00;100653.44;5036099;28;20091;-88
2023/07/31 06:42:25;;;;;;;;;;;;;;;;;;;;;
2023/07/31 06:44:53;;;;;;;8.63;4.50;;;;;;;16.26;100.00;100666.59;5051713;28;20047;-89
2023/07/31 06:47:38;;;;;;;6.85;4.35;;;;;;;16.46;100.00;100687.63;5034789;28;20041;-90
2023/07/31 06:50:14;;;;;;;6.85;4.10;;;;;;;16.28;100.00;100656.81;5019619;28;20048;-88
2023/07/31 06:53:05;;;;;;;8.27;4.43;;;;;;;16.18;100.00;100633.84;5052711;28;20029;-88
2023/07/31 06:55:43;;;;;;;6.90;4.28;;;;;;;16.15;100.00;100619.69;5022494;28;20040;-88
2023/07/31 06:58:24;;;;;;;7.82;4.05;;;;;;;16.46;100.00;100682.28;5053062;28;20046;-89
2023/07/31 07:01:11;;;;;;;;;;;;;;;;;;;;;
2023/07/31 07:03:40;;;;;;;5.60;3.83;;;;;;;16.29;100.00;100644.34;5052427;28;20029;-89
2023/07/31 07:06:20;;;;;;;6.70;4.10;;;;;;;16.38;100.00;100656.66;5034801;28;20039;-88
2023/07/31 07:09:17;;;;;;;6.70;3.80;;;;;;;16.25;100.00;100630.19;5052490;28;20056;-88
2023/07/31 07:11:54;;;;;;;5.95;3.95;;;;;;;16.29;100.00;100620.34;5034187;28;20120;-88
2023/07/31 07:14:30;;;;;;;6.00;3.60;;;;;;;16.41;100.00;100660.16;5021972;28;20037;-89
2023/07/31 07:17:04;;;;;;;7.75;3.95;;;;;;;16.53;100.00;100678.63;5052368;28;20492;-88
2023/07/31 07:19:52;;;;;;;;;;;;;;;;;;;;;
2023/07/31 07:22:28;;;;;;;7.00;3.55;;;;;;;16.40;100.00;100637.06;5051268;28;20031;-89
2023/07/31 07:25:19;;;;;;;6.18;3.60;;;;;;;16.35;100.00;100633.56;5018591;28;20032;-89
2023/07/31 07:28:00;;;;;;;4.63;3.15;;;;;;;16.32;100.00;100608.75;5016026;28;20049;-89
2023/07/31 07:30:37;;;;;;;4.57;3.08;;;;;;;16.50;100.00;100668.00;5019177;28;20384;-89
2023/07/31 07:33:20;;;;;;;;;;;;;;;;;;;;;
2023/07/31 07:36:17;;;;;;;5.85;3.67;;;;;;;16.56;100.00;100647.47;5037886;28;20028;-89
2023/07/31 07:38:45;;;;;;;6.15;4.40;;;;;;;16.48;100.00;100648.47;5034779;28;20044;-87
2023/07/31 07:41:36;;;;;;;6.63;3.70;;;;;;;16.49;100.00;100628.03;5038116;28;20041;-87
2023/07/31 07:44:17;;;;;;;8.68;3.90;;;;;;;16.72;100.00;100673.88;5056565;28;20029;-89
2023/07/31 07:47:10;;;;;;;6.93;4.20;;;;;;;16.41;100.00;100620.16;5055359;28;20127;-88
2023/07/31 07:49:54;;;;;;;7.40;4.40;;;;;;;16.39;100.00;100613.06;5038356;28;20457;-88
2023/07/31 07:52:30;;;;;;;6.50;3.92;;;;;;;16.57;100.00;100642.09;5038116;28;20025;-87
2023/07/31 07:55:06;;;;;;;6.80;4.47;;;;;;;16.73;100.00;100672.97;5055583;28;20071;-87
2023/07/31 07:58:03;;;;;;;9.93;4.70;;;;;;;16.50;100.00;100619.13;5054490;28;20061;-87
2023/07/31 08:00:58;;;;;;;;;;;;;;;;;;;;;
2023/07/31 08:03:41;;;;;;;7.43;4.50;;;;;;;16.52;100.00;100611.94;5056162;28;20035;-87
2023/07/31 08:06:42;;;;;;;;;;;;;;;;;;;;;
2023/07/31 08:09:15;;;;;;;8.40;4.97;;;;;;;16.80;100.00;100664.88;5055998;28;20037;-87
2023/07/31 08:11:46;;;;;;;10.13;4.60;;;;;;;16.44;100.00;100604.06;5054758;28;20036;-87
2023/07/31 08:17:30;;;;;;;8.93;5.00;;;;;;;16.76;100.00;100659.59;5047742;28;20421;-87
2023/07/31 08:23:05;;;;;;;;;;;;;;;;;;;;;
2023/07/31 08:31:39;;;;;;;8.60;5.00;;;;;;;16.50;100.00;100611.13;5040993;28;20079;-88
2023/07/31 08:37:42;;;;;;;7.80;4.82;;;;;;;16.77;100.00;100658.66;5039312;28;20146;-87
2023/07/31 08:40:14;;;;;;;8.35;4.70;;;;;;;16.48;100.00;100612.91;5037664;28;20037;-88
2023/07/31 08:43:13;;;;;;;10.40;5.18;;;;;;;16.58;100.00;100617.19;5054101;28;20021;-89
2023/07/31 08:46:21;;;;;;;7.95;5.00;;;;;;;16.87;100.00;100656.72;5034434;28;20045;-89
2023/07/31 08:51:57;;;;;;;8.18;4.72;;;;;;;16.58;100.00;100621.66;5023519;28;20044;-90
2023/07/31 08:54:43;;;;;;;9.00;5.20;;;;;;;16.67;100.00;100622.38;5055363;28;20036;-92
2023/07/31 08:57:14;;;;;;;8.40;5.10;;;;;;;16.54;100.00;100604.81;5023719;28;20041;-90
2023/07/31 09:00:00;;;;;;;;;;;;;;;;;;;;;
2023/07/31 09:02:34;;;;;;;8.50;5.00;;;;;;;16.52;100.00;100595.94;5055938;28;20041;-86
2023/07/31 09:05:07;;;;;;;9.73;5.65;;;;;;;16.68;100.00;100628.56;5038437;28;20025;-90
2023/07/31 09:08:05;;;;;;;;;;;;;;;;;;;;;
2023/07/31 09:10:51;;;;;;;12.10;5.80;;;;;;;16.58;100.00;100584.31;5055239;28;20441;-90
2023/07/31 09:16:18;;;;;;;11.80;5.60;;;;;;;16.95;100.00;100648.56;5057181;28;20033;-86
2023/07/31 09:19:22;;;;;;;10.05;5.50;;;;;;;16.94;100.00;100639.69;5039968;28;20040;-89
2023/07/31 09:22:24;;;;;;;;;;;;;;;;;;;;;
2023/07/31 09:24:55;;;;;;;11.35;5.35;;;;;;;16.87;100.00;100611.34;5072556;28;20068;-87
2023/07/31 09:27:26;;;;;;;9.05;5.60;;;;;;;16.91;100.00;100614.84;5076387;28;20040;-89
2023/07/31 09:33:18;;;;;;;12.00;5.53;;;;;;;16.80;100.00;100582.16;5041438;28;20025;-88
2023/07/31 09:38:53;;;;;;;10.60;5.60;;;;;;;16.99;100.00;100588.88;5063850;28;20033;-90
2023/07/31 09:41:51;;;;;;;10.02;5.60;;;;;;;16.95;100.00;100572.03;5069161;28;20072;-91
2023/07/31 09:44:38;;;;;;;8.32;4.80;;;;;;;17.12;100.00;100601.06;5057912;28;20043;-89
2023/07/31 09:50:38;;;;;;;9.25;5.35;;;;;;;17.12;100.00;100582.38;5040503;28;20496;-91
2023/07/31 09:53:05;;;;;;;8.93;5.15;;;;;;;17.24;100.00;100589.25;5056206;28;20028;-89
2023/07/31 09:59:38;;;;;;;10.88;4.90;;;;;;;17.59;100.00;100625.91;5036113;28;20056;-92
2023/07/31 10:02:18;;;;;;;11.48;5.30;;;;;;;17.33;100.00;100580.19;5021465;28;20029;-92
2023/07/31 10:05:01;;;;;;;11.65;5.07;;;;;;;17.34;100.00;100579.25;5055327;28;20523;-91
2023/07/31 10:07:56;;;;;;;;;;;;;;;;;;;;;
2023/07/31 10:10:38;;;;;;;;;;;;;;;;;;;;;
2023/07/31 10:13:22;;;;;;;11.20;4.93;;;;;;;17.66;100.00;100614.19;5053848;28;20115;-90
2023/07/31 10:16:13;;;;;;;;;;;;;;;;;;;;;
2023/07/31 10:21:48;;;;;;;;;;;;;;;;;;;;;
2023/07/31 10:24:47;;;;;;;;;;;;;;;;;;;;;
2023/07/31 10:27:53;;;;;;;;;;;;;;;;;;;;;
2023/07/31 10:30:49;;;;;;;9.18;4.55;;;;;;;17.90;100.00;100577.13;5052292;28;20043;-89
2023/07/31 10:33:59;;;;;;;;;;;;;;;;;;;;;
2023/07/31 10:36:53;;;;;;;;;;;;;;;;;;;;;
2023/07/31 10:39:46;;;;;;;;;;;;;;;;;;;;;
2023/07/31 10:42:38;;;;;;;7.75;4.28;;;;;;;18.23;100.00;100621.78;5053655;28;20029;-93
2023/07/31 10:45:50;;;;;;;8.27;4.50;;;;;;;18.01;100.00;100570.63;5053284;28;20533;-91
2023/07/31 10:48:31;;;;;;;;;;;;;;;;;;;;;
2023/07/31 10:51:23;;;;;;;8.82;4.20;;;;;;;18.01;100.00;100562.59;5051819;28;20029;-88
2023/07/31 10:54:21;;;;;;;8.18;4.63;;;;;;;18.22;100.00;100606.66;5053054;28;20502;-89
2023/07/31 10:57:03;;;;;;;7.00;4.10;;;;;;;18.31;100.00;100626.09;5042863;28;20025;-94
2023/07/31 10:59:56;;;;;;;8.15;4.30;;;;;;;18.15;100.00;100594.34;5037406;28;20118;-90
2023/07/31 11:02:58;;;;;;;8.25;4.25;;;;;;;18.02;100.00;100564.34;5052727;28;20120;-90
2023/07/31 11:05:50;;;;;;;9.05;4.43;;;;;;;17.97;100.00;100552.03;5032728;28;20029;-89
2023/07/31 11:08:24;;;;;;;;;;;;;;;18.37;100.00;100612.53;5060859;28;20032;-91
2023/07/31 11:11:02;;;;;;;8.20;4.53;;;;;;;18.25;100.00;100614.63;5053979;28;19927;-89
2023/07/31 11:17:18;;;;;;;12.68;4.55;;;;;;;18.23;100.00;100551.38;4973743;28;20126;-88
2023/07/31 11:23:32;;;;;;;;;;;;;;;;;;;;;
2023/07/31 11:26:03;;;;;;;8.32;4.40;;;;;;;18.85;100.00;100609.56;5056232;28;20031;-85
2023/07/31 11:28:33;;;;;;;6.97;4.32;;;;;;;18.74;100.00;100583.06;5056462;28;20051;-90
2023/07/31 11:31:30;;;;;;;10.48;4.47;;;;;;;18.60;100.00;100561.13;5038795;28;20013;-90
2023/07/31 11:34:10;;;;;;;6.75;4.22;;;;;;;18.68;100.00;100567.16;5055765;28;20550;-89
2023/07/31 11:36:56;;;;;;;8.35;4.47;;;;;;;18.71;100.00;100559.06;5056063;28;20029;-86
2023/07/31 11:39:41;;;;;;;7.70;4.55;;;;;;;18.86;100.00;100581.88;5056483;28;20079;-87
2023/07/31 11:42:31;;;;;;;9.00;4.38;;;;;;;18.99;100.00;100580.59;5055275;28;20078;-88
2023/07/31 11:45:18;;;;;;;;;;;;;;;;;;;;;
2023/07/31 11:48:06;;;;;;;6.80;4.22;;;;;;;19.13;100.00;100590.91;5053549;28;20041;-88
2023/07/31 11:54:06;;;;;;;8.90;3.90;;;;;;;18.86;100.00;100526.50;5044763;28;20048;-87
2023/07/31 11:57:03;;;;;;;;;;;;;;;;;;;;;
2023/07/31 11:59:41;;;;;;;6.50;3.80;;;;;;;19.12;100.00;100583.81;5055331;28;20051;-88
2023/07/31 12:02:19;;;;;;;;;;;;;;;;;;;;;
2023/07/31 12:04:49;;;;;;;6.50;3.88;;;;;;;18.97;100.00;100544.94;5054610;28;20138;-87
2023/07/31 12:07:27;;;;;;;7.10;3.88;;;;;;;18.89;100.00;100538.94;5055846;28;20510;-87
2023/07/31 12:10:10;;;;;;;;;;;;;;;;;;;;;
2023/07/31 12:12:44;;;;;;;8.60;3.97;;;;;;;18.86;100.00;100537.22;5056160;28;20059;-88
2023/07/31 12:15:37;;;;;;;;;;;;;;;;;;;;;
2023/07/31 12:18:10;;;;;;;7.95;3.95;;;;;;;18.76;100.00;100550.00;5040465;28;20461;-86
2023/07/31 12:20:48;;;;;;;7.75;4.05;;;;;;;18.80;100.00;100556.16;5055177;28;20029;-88
2023/07/31 12:23:18;;;;;;;6.22;4.07;;;;;;;18.88;100.00;100577.31;5055637;28;20021;-86
2023/07/31 12:25:45;;;;;;;7.38;4.13;;;;;;;18.89;100.00;100577.31;5053413;28;20045;-86
2023/07/31 12:28:13;;;;;;;7.22;4.20;;;;;;;18.87;100.00;100567.53;5055121;28;20461;-84
2023/07/31 12:30:40;;;;;;;9.73;4.50;;;;;;;18.81;100.00;100557.91;5037659;28;20036;-86
2023/07/31 12:33:15;;;;;;;7.95;4.60;;;;;;;18.77;100.00;100556.22;5035834;28;20036;-85
2023/07/31 12:35:46;;;;;;;9.02;4.45;;;;;;;18.82;100.00;100562.31;5029605;28;20018;-84
2023/07/31 12:38:13;;;;;;;9.38;4.97;;;;;;;18.76;100.00;100568.72;5034837;28;20445;-85
2023/07/31 12:40:40;;;;;;;7.75;4.50;;;;;;;18.60;100.00;100548.63;5034672;28;20453;-84
2023/07/31 12:43:07;;;;;;;9.55;4.88;;;;;;;18.60;100.00;100551.28;5034663;28;20029;-83
2023/07/31 12:45:32;;;;;;;10.32;5.13;;;;;;;18.56;100.00;100551.41;5034669;28;20045;-83
2023/07/31 12:47:59;;;;;;;9.05;5.47;;;;;;;18.58;100.00;100555.78;5033049;28;20026;-82
2023/07/31 12:50:25;;;;;;;11.30;5.13;;;;;;;18.58;100.00;100553.13;5034966;28;20029;-84
2023/07/31 12:52:54;;;;;;;7.88;5.03;;;;;;;18.57;100.00;100545.16;5034137;28;20437;-85
2023/07/31 12:55:19;;;;;;;9.00;5.05;;;;;;;18.52;100.00;100532.75;5016977;28;20342;-84
2023/07/31 12:57:44;;;;;;;12.70;5.40;;;;;;;18.53;100.00;100544.34;5035312;28;20048;-86
2023/07/31 13:00:11;;;;;;;11.18;5.80;;;;;;;18.44;100.00;100533.88;5036462;28;20045;-85
2023/07/31 13:02:36;;;;;;;9.77;5.47;;;;;;;18.54;100.00;100532.72;5054673;28;20083;-83
2023/07/31 13:05:02;;;;;;;10.70;5.43;;;;;;;18.59;100.00;100536.16;5054913;28;20033;-85
2023/07/31 13:07:27;;;;;;;9.60;5.45;;;;;;;18.53;100.00;100521.13;5054187;28;20062;-84
2023/07/31 13:09:53;;;;;;;10.18;5.88;;;;;;;18.57;100.00;100511.22;5054340;28;20121;-83
2023/07/31 13:12:18;;;;;;;11.50;5.50;;;;;;;18.63;100.00;100512.84;5054697;28;20478;-83
2023/07/31 13:14:46;;;;;;;9.93;5.53;;;;;;;18.67;100.00;100518.09;5054094;28;20064;-83
2023/07/31 13:17:11;;;;;;;13.05;5.78;;;;;;;18.72;100.00;100520.69;5054743;28;20082;-83
2023/07/31 13:19:37;;;;;;;11.50;5.55;;;;;;;18.75;100.00;100529.47;5036335;28;20419;-83
2023/07/31 13:22:02;;;;;;;9.13;5.38;;;;;;;18.80;100.00;100539.19;5054427;28;20060;-82
2023/07/31 13:24:27;;;;;;;10.73;5.72;;;;;;;18.79;100.00;100524.03;5054125;28;20052;-83
2023/07/31 13:26:53;;;;;;;9.40;5.38;;;;;;;18.80;100.00;100517.75;5053638;28;20052;-82
2023/07/31 13:29:18;;;;;;;11.38;5.47;;;;;;;18.88;100.00;100516.63;5036302;28;20025;-83
2023/07/31 13:31:44;;;;;;;11.18;5.20;;;;;;;18.93;100.00;100508.50;5036561;28;20128;-84
2023/07/31 13:34:09;;;;;;;12.75;5.78;;;;;;;18.92;100.00;100520.09;5054095;28;20024;-82
2023/07/31 13:36:36;;;;;;;10.63;5.13;;;;;;;18.83;100.00;100501.63;5054027;28;20087;-83
2023/07/31 13:39:02;;;;;;;8.98;4.80;;;;;;;18.89;100.00;100501.47;5035804;28;20475;-83
2023/07/31 13:41:28;;;;;;;11.75;4.93;;;;;;;18.91;100.00;100497.81;5053824;28;20033;-84
2023/07/31 13:43:53;;;;;;;10.77;5.03;;;;;;;18.84;100.00;100503.38;5053638;28;20036;-83
2023/07/31 13:46:19;;;;;;;10.15;5.07;;;;;;;18.56;100.00;100466.66;5053913;28;20028;-84
2023/07/31 13:48:44;;;;;;;10.45;5.28;;;;;;;18.85;100.00;100513.19;5054062;28;20052;-85
2023/07/31 13:51:09;;;;;;;9.55;5.38;;;;;;;18.68;100.00;100485.06;5035913;28;20028;-84
2023/07/31 13:53:35;;;;;;;10.55;5.50;;;;;;;18.74;100.00;100513.47;5053844;28;20430;-86
2023/07/31 13:56:03;;;;;;;10.82;5.53;;;;;;;18.62;100.00;100487.00;5035808;28;20033;-88
2023/07/31 13:58:32;;;;;;;10.43;5.57;;;;;;;18.62;100.00;100500.41;5053110;28;20120;-87
2023/07/31 14:01:00;;;;;;;12.48;5.72;;;;;;;18.57;100.00;100499.66;5053527;28;20037;-85
2023/07/31 14:03:25;;;;;;;10.57;5.93;;;;;;;18.50;100.00;100486.47;5053401;28;20029;-86
2023/07/31 14:05:52;;;;;;;11.30;5.78;;;;;;;18.56;100.00;100496.09;5052951;28;20107;-84
2023/07/31 14:08:17;;;;;;;11.93;6.32;;;;;;;18.59;100.00;100505.84;5035396;28;20101;-86
2023/07/31 14:10:43;;;;;;;14.57;6.68;;;;;;;18.47;100.00;100481.19;5053448;28;20524;-85
2023/07/31 14:13:11;;;;;;;12.98;6.40;;;;;;;18.52;100.00;100507.81;5051971;28;20045;-86
2023/07/31 14:15:36;;;;;;;10.45;6.43;;;;;;;18.46;100.00;100502.63;5035670;28;20040;-88
2023/07/31 14:18:03;;;;;;;16.63;6.60;;;;;;;18.45;100.00;100501.72;5035680;28;20128;-87
2023/07/31 14:20:29;;;;;;;11.45;6.60;;;;;;;18.34;100.00;100495.81;5053250;28;20448;-86
2023/07/31 14:22:55;;;;;;;10.85;6.72;;;;;;;18.35;100.00;100504.72;5053261;28;20044;-85
2023/07/31 14:25:21;;;;;;;12.77;6.40;;;;;;;18.29;100.00;100495.06;5053117;28;20033;-86
2023/07/31 14:27:46;;;;;;;10.93;6.45;;;;;;;18.24;100.00;100486.25;5052930;28;20083;-84
2023/07/31 14:30:11;;;;;;;15.73;6.20;;;;;;;18.22;100.00;100488.97;5051930;28;20090;-87
2023/07/31 14:32:37;;;;;;;16.05;6.70;;;;;;;18.20;100.00;100474.78;5052444;28;20037;-86
2023/07/31 14:35:03;;;;;;;11.10;6.10;;;;;;;18.29;100.00;100487.03;5035901;28;20029;-89
2023/07/31 14:37:40;;;;;;;13.38;6.90;;;;;;;18.35;100.00;100485.97;5032868;28;20030;-86